sensor_id;sensor_type;location;lat;lon;timestamp;P1;durP1;ratioP1;P2;durP2;ratioP2
3922;SDS011;1976;51.694;6.256;2023-03-26T00:01:24;15.43;;;3.10;;
3922;SDS011;1976;51.694;6.256;2023-03-26T00:03:51;5.40;;;1.70;;
3922;SDS011;1976;51.694;6.256;2023-03-26T00:06:23;8.03;;;1.97;;
3922;SDS011;1976;51.694;6.256;2023-03-26T00:08:51;18.60;;;4.27;;
3922;SDS011;1976;51.694;6.256;2023-03-26T00:11:18;20.33;;;3.93;;
3922;SDS011;1976;51.694;6.256;2023-03-26T00:13:46;28.37;;;3.33;;
3922;SDS011;1976;51.694;6.256;2023-03-26T00:16:16;20.13;;;5.40;;
3922;SDS011;1976;51.694;6.256;2023-03-26T00:18:43;4.23;;;2.07;;
3922;SDS011;1976;51.694;6.256;2023-03-26T00:21:11;14.20;;;3.90;;
3922;SDS011;1976;51.694;6.256;2023-03-26T00:23:39;15.63;;;3.20;;
3922;SDS011;1976;51.694;6.256;2023-03-26T00:26:05;13.50;;;3.33;;
3922;SDS011;1976;51.694;6.256;2023-03-26T00:28:39;22.47;;;4.20;;
3922;SDS011;1976;51.694;6.256;2023-03-26T00:31:06;13.90;;;4.07;;
3922;SDS011;1976;51.694;6.256;2023-03-26T00:33:34;12.03;;;4.27;;
3922;SDS011;1976;51.694;6.256;2023-03-26T00:36:09;20.40;;;3.60;;
3922;SDS011;1976;51.694;6.256;2023-03-26T00:38:38;19.57;;;4.27;;
3922;SDS011;1976;51.694;6.256;2023-03-26T00:41:06;18.63;;;4.00;;
3922;SDS011;1976;51.694;6.256;2023-03-26T00:43:41;32.47;;;4.90;;
3922;SDS011;1976;51.694;6.256;2023-03-26T00:46:07;21.40;;;2.00;;
3922;SDS011;1976;51.694;6.256;2023-03-26T00:48:33;23.60;;;4.10;;
3922;SDS011;1976;51.694;6.256;2023-03-26T00:51:03;25.77;;;3.90;;
3922;SDS011;1976;51.694;6.256;2023-03-26T00:53:30;24.17;;;4.80;;
3922;SDS011;1976;51.694;6.256;2023-03-26T00:55:56;36.57;;;6.00;;
3922;SDS011;1976;51.694;6.256;2023-03-26T00:58:24;26.77;;;5.77;;
3922;SDS011;1976;51.694;6.256;2023-03-26T01:00:52;37.87;;;5.70;;
3922;SDS011;1976;51.694;6.256;2023-03-26T01:03:21;42.10;;;5.80;;
3922;SDS011;1976;51.694;6.256;2023-03-26T01:06:10;48.10;;;5.67;;
3922;SDS011;1976;51.694;6.256;2023-03-26T01:08:40;16.33;;;3.23;;
3922;SDS011;1976;51.694;6.256;2023-03-26T01:11:30;22.30;;;3.10;;
3922;SDS011;1976;51.694;6.256;2023-03-26T01:13:59;16.17;;;3.43;;
3922;SDS011;1976;51.694;6.256;2023-03-26T01:16:30;7.73;;;3.30;;
3922;SDS011;1976;51.694;6.256;2023-03-26T01:19:07;7.40;;;2.37;;
3922;SDS011;1976;51.694;6.256;2023-03-26T01:21:36;23.27;;;3.50;;
3922;SDS011;1976;51.694;6.256;2023-03-26T01:24:07;9.93;;;2.53;;
3922;SDS011;1976;51.694;6.256;2023-03-26T01:29:28;12.83;;;2.70;;
3922;SDS011;1976;51.694;6.256;2023-03-26T01:37:59;15.83;;;3.83;;
3922;SDS011;1976;51.694;6.256;2023-03-26T01:40:35;16.50;;;3.17;;
3922;SDS011;1976;51.694;6.256;2023-03-26T01:45:50;16.50;;;2.57;;
3922;SDS011;1976;51.694;6.256;2023-03-26T01:48:16;41.03;;;4.23;;
3922;SDS011;1976;51.694;6.256;2023-03-26T01:50:42;18.17;;;3.37;;
3922;SDS011;1976;51.694;6.256;2023-03-26T01:53:08;8.17;;;2.03;;
3922;SDS011;1976;51.694;6.256;2023-03-26T01:55:41;6.67;;;2.60;;
3922;SDS011;1976;51.694;6.256;2023-03-26T01:58:27;13.20;;;4.10;;
3922;SDS011;1976;51.694;6.256;2023-03-26T02:00:59;21.30;;;3.63;;
3922;SDS011;1976;51.694;6.256;2023-03-26T02:03:38;14.03;;;3.93;;
3922;SDS011;1976;51.694;6.256;2023-03-26T02:06:28;13.63;;;4.47;;
3922;SDS011;1976;51.694;6.256;2023-03-26T02:09:02;13.17;;;2.20;;
3922;SDS011;1976;51.694;6.256;2023-03-26T02:18:18;18.63;;;4.10;;
3922;SDS011;1976;51.694;6.256;2023-03-26T02:20:48;23.13;;;4.23;;
3922;SDS011;1976;51.694;6.256;2023-03-26T02:23:20;18.90;;;3.57;;
3922;SDS011;1976;51.694;6.256;2023-03-26T02:25:46;2.23;;;1.20;;
3922;SDS011;1976;51.694;6.256;2023-03-26T02:28:12;25.13;;;3.83;;
3922;SDS011;1976;51.694;6.256;2023-03-26T02:30:37;25.93;;;5.03;;
3922;SDS011;1976;51.694;6.256;2023-03-26T02:33:03;9.90;;;3.40;;
3922;SDS011;1976;51.694;6.256;2023-03-26T02:35:29;23.37;;;2.60;;
3922;SDS011;1976;51.694;6.256;2023-03-26T02:37:55;18.03;;;4.00;;
3922;SDS011;1976;51.694;6.256;2023-03-26T02:40:20;14.30;;;2.90;;
3922;SDS011;1976;51.694;6.256;2023-03-26T02:42:47;25.60;;;4.23;;
3922;SDS011;1976;51.694;6.256;2023-03-26T02:45:13;23.57;;;4.83;;
3922;SDS011;1976;51.694;6.256;2023-03-26T02:47:39;20.37;;;3.00;;
3922;SDS011;1976;51.694;6.256;2023-03-26T02:50:05;24.30;;;3.87;;
3922;SDS011;1976;51.694;6.256;2023-03-26T02:52:32;22.77;;;3.67;;
3922;SDS011;1976;51.694;6.256;2023-03-26T02:55:00;21.70;;;4.73;;
3922;SDS011;1976;51.694;6.256;2023-03-26T02:57:25;2.57;;;1.33;;
3922;SDS011;1976;51.694;6.256;2023-03-26T02:59:51;27.60;;;3.97;;
3922;SDS011;1976;51.694;6.256;2023-03-26T03:02:17;13.27;;;3.00;;
3922;SDS011;1976;51.694;6.256;2023-03-26T03:04:43;14.67;;;3.87;;
3922;SDS011;1976;51.694;6.256;2023-03-26T03:07:09;18.77;;;4.00;;
3922;SDS011;1976;51.694;6.256;2023-03-26T03:09:38;27.00;;;3.83;;
3922;SDS011;1976;51.694;6.256;2023-03-26T03:12:04;30.83;;;3.97;;
3922;SDS011;1976;51.694;6.256;2023-03-26T03:14:30;30.37;;;4.53;;
3922;SDS011;1976;51.694;6.256;2023-03-26T03:16:56;42.07;;;5.60;;
3922;SDS011;1976;51.694;6.256;2023-03-26T03:19:21;22.10;;;3.17;;
3922;SDS011;1976;51.694;6.256;2023-03-26T03:21:47;17.53;;;3.40;;
3922;SDS011;1976;51.694;6.256;2023-03-26T03:24:13;24.93;;;4.10;;
3922;SDS011;1976;51.694;6.256;2023-03-26T03:26:42;8.90;;;2.67;;
3922;SDS011;1976;51.694;6.256;2023-03-26T03:29:09;21.67;;;3.27;;
3922;SDS011;1976;51.694;6.256;2023-03-26T03:31:36;34.00;;;5.77;;
3922;SDS011;1976;51.694;6.256;2023-03-26T03:34:01;28.10;;;3.97;;
3922;SDS011;1976;51.694;6.256;2023-03-26T03:36:27;26.90;;;4.93;;
3922;SDS011;1976;51.694;6.256;2023-03-26T03:38:54;35.83;;;3.33;;
3922;SDS011;1976;51.694;6.256;2023-03-26T03:41:20;27.33;;;4.17;;
3922;SDS011;1976;51.694;6.256;2023-03-26T03:43:45;19.50;;;3.63;;
3922;SDS011;1976;51.694;6.256;2023-03-26T03:46:11;28.93;;;5.50;;
3922;SDS011;1976;51.694;6.256;2023-03-26T03:48:36;22.53;;;3.73;;
3922;SDS011;1976;51.694;6.256;2023-03-26T03:51:03;23.93;;;3.20;;
3922;SDS011;1976;51.694;6.256;2023-03-26T03:53:30;14.17;;;4.00;;
3922;SDS011;1976;51.694;6.256;2023-03-26T03:55:55;35.00;;;4.13;;
3922;SDS011;1976;51.694;6.256;2023-03-26T03:58:22;10.23;;;4.10;;
3922;SDS011;1976;51.694;6.256;2023-03-26T04:00:49;26.80;;;4.20;;
3922;SDS011;1976;51.694;6.256;2023-03-26T04:03:17;18.73;;;4.30;;
3922;SDS011;1976;51.694;6.256;2023-03-26T04:05:43;29.77;;;4.87;;
3922;SDS011;1976;51.694;6.256;2023-03-26T04:08:16;16.83;;;2.90;;
3922;SDS011;1976;51.694;6.256;2023-03-26T04:10:43;17.60;;;4.40;;
3922;SDS011;1976;51.694;6.256;2023-03-26T04:13:10;23.50;;;5.30;;
3922;SDS011;1976;51.694;6.256;2023-03-26T04:15:36;27.17;;;5.50;;
3922;SDS011;1976;51.694;6.256;2023-03-26T04:18:02;19.10;;;3.10;;
3922;SDS011;1976;51.694;6.256;2023-03-26T04:20:28;42.63;;;4.20;;
3922;SDS011;1976;51.694;6.256;2023-03-26T04:22:53;17.13;;;3.73;;
3922;SDS011;1976;51.694;6.256;2023-03-26T04:25:20;21.17;;;4.13;;
3922;SDS011;1976;51.694;6.256;2023-03-26T04:27:45;23.93;;;4.10;;
3922;SDS011;1976;51.694;6.256;2023-03-26T04:30:15;17.33;;;3.53;;
3922;SDS011;1976;51.694;6.256;2023-03-26T04:32:44;22.57;;;3.10;;
3922;SDS011;1976;51.694;6.256;2023-03-26T04:35:11;18.73;;;3.30;;
3922;SDS011;1976;51.694;6.256;2023-03-26T04:37:40;29.33;;;5.07;;
3922;SDS011;1976;51.694;6.256;2023-03-26T04:40:11;19.23;;;4.30;;
3922;SDS011;1976;51.694;6.256;2023-03-26T04:42:40;19.17;;;3.90;;
3922;SDS011;1976;51.694;6.256;2023-03-26T04:45:10;31.83;;;4.10;;
3922;SDS011;1976;51.694;6.256;2023-03-26T04:47:37;26.53;;;3.93;;
3922;SDS011;1976;51.694;6.256;2023-03-26T04:50:04;17.23;;;4.33;;
3922;SDS011;1976;51.694;6.256;2023-03-26T04:52:33;22.50;;;4.43;;
3922;SDS011;1976;51.694;6.256;2023-03-26T04:54:59;17.10;;;3.73;;
3922;SDS011;1976;51.694;6.256;2023-03-26T04:57:31;15.37;;;3.10;;
3922;SDS011;1976;51.694;6.256;2023-03-26T05:00:04;26.00;;;5.27;;
3922;SDS011;1976;51.694;6.256;2023-03-26T05:02:38;28.57;;;5.30;;
3922;SDS011;1976;51.694;6.256;2023-03-26T05:05:06;14.27;;;3.67;;
3922;SDS011;1976;51.694;6.256;2023-03-26T05:07:32;28.53;;;4.70;;
3922;SDS011;1976;51.694;6.256;2023-03-26T05:09:58;27.07;;;4.07;;
3922;SDS011;1976;51.694;6.256;2023-03-26T05:12:26;10.30;;;3.60;;
3922;SDS011;1976;51.694;6.256;2023-03-26T05:14:51;15.43;;;3.60;;
3922;SDS011;1976;51.694;6.256;2023-03-26T05:17:17;22.43;;;4.10;;
3922;SDS011;1976;51.694;6.256;2023-03-26T05:19:45;15.83;;;4.10;;
3922;SDS011;1976;51.694;6.256;2023-03-26T05:22:11;18.70;;;3.50;;
3922;SDS011;1976;51.694;6.256;2023-03-26T05:24:36;19.97;;;4.43;;
3922;SDS011;1976;51.694;6.256;2023-03-26T05:27:02;12.33;;;3.70;;
3922;SDS011;1976;51.694;6.256;2023-03-26T05:29:27;25.83;;;4.70;;
3922;SDS011;1976;51.694;6.256;2023-03-26T05:31:53;14.53;;;3.57;;
3922;SDS011;1976;51.694;6.256;2023-03-26T05:34:19;16.13;;;3.70;;
3922;SDS011;1976;51.694;6.256;2023-03-26T05:36:48;20.20;;;4.20;;
3922;SDS011;1976;51.694;6.256;2023-03-26T05:39:13;21.80;;;4.27;;
3922;SDS011;1976;51.694;6.256;2023-03-26T05:41:39;28.70;;;4.27;;
3922;SDS011;1976;51.694;6.256;2023-03-26T05:44:05;16.60;;;3.77;;
3922;SDS011;1976;51.694;6.256;2023-03-26T05:46:31;36.47;;;4.23;;
3922;SDS011;1976;51.694;6.256;2023-03-26T05:48:57;29.57;;;4.33;;
3922;SDS011;1976;51.694;6.256;2023-03-26T05:51:23;9.87;;;3.57;;
3922;SDS011;1976;51.694;6.256;2023-03-26T05:53:49;28.63;;;3.80;;
3922;SDS011;1976;51.694;6.256;2023-03-26T05:56:15;28.13;;;3.33;;
3922;SDS011;1976;51.694;6.256;2023-03-26T05:58:40;20.13;;;3.80;;
3922;SDS011;1976;51.694;6.256;2023-03-26T06:01:07;21.53;;;4.10;;
3922;SDS011;1976;51.694;6.256;2023-03-26T06:03:36;16.80;;;2.67;;
3922;SDS011;1976;51.694;6.256;2023-03-26T06:06:05;15.47;;;4.00;;
3922;SDS011;1976;51.694;6.256;2023-03-26T06:08:32;12.03;;;3.13;;
3922;SDS011;1976;51.694;6.256;2023-03-26T06:10:58;16.60;;;4.10;;
3922;SDS011;1976;51.694;6.256;2023-03-26T06:13:25;24.10;;;5.20;;
3922;SDS011;1976;51.694;6.256;2023-03-26T06:15:51;22.80;;;4.47;;
3922;SDS011;1976;51.694;6.256;2023-03-26T06:18:17;24.07;;;5.13;;
3922;SDS011;1976;51.694;6.256;2023-03-26T06:20:44;24.03;;;3.97;;
3922;SDS011;1976;51.694;6.256;2023-03-26T06:23:10;13.77;;;3.60;;
3922;SDS011;1976;51.694;6.256;2023-03-26T06:25:36;17.47;;;3.93;;
3922;SDS011;1976;51.694;6.256;2023-03-26T06:28:02;19.20;;;4.80;;
3922;SDS011;1976;51.694;6.256;2023-03-26T06:30:28;13.57;;;3.50;;
3922;SDS011;1976;51.694;6.256;2023-03-26T06:32:53;14.33;;;3.40;;
3922;SDS011;1976;51.694;6.256;2023-03-26T06:35:19;14.47;;;4.43;;
3922;SDS011;1976;51.694;6.256;2023-03-26T06:37:45;19.50;;;3.90;;
3922;SDS011;1976;51.694;6.256;2023-03-26T06:40:11;19.33;;;3.63;;
3922;SDS011;1976;51.694;6.256;2023-03-26T06:42:37;10.00;;;2.83;;
3922;SDS011;1976;51.694;6.256;2023-03-26T06:45:03;14.03;;;3.83;;
3922;SDS011;1976;51.694;6.256;2023-03-26T06:47:29;18.83;;;3.83;;
3922;SDS011;1976;51.694;6.256;2023-03-26T06:49:55;13.77;;;4.17;;
3922;SDS011;1976;51.694;6.256;2023-03-26T06:52:21;23.40;;;4.90;;
3922;SDS011;1976;51.694;6.256;2023-03-26T06:54:47;11.83;;;3.20;;
3922;SDS011;1976;51.694;6.256;2023-03-26T06:57:12;11.83;;;3.20;;
3922;SDS011;1976;51.694;6.256;2023-03-26T06:59:38;29.83;;;4.77;;
3922;SDS011;1976;51.694;6.256;2023-03-26T07:02:04;29.20;;;3.97;;
3922;SDS011;1976;51.694;6.256;2023-03-26T07:04:30;21.40;;;3.90;;
3922;SDS011;1976;51.694;6.256;2023-03-26T07:06:55;16.37;;;3.77;;
3922;SDS011;1976;51.694;6.256;2023-03-26T07:09:21;9.70;;;2.80;;
3922;SDS011;1976;51.694;6.256;2023-03-26T07:11:46;18.87;;;3.67;;
3922;SDS011;1976;51.694;6.256;2023-03-26T07:14:12;17.70;;;5.10;;
3922;SDS011;1976;51.694;6.256;2023-03-26T07:16:38;10.80;;;3.30;;
3922;SDS011;1976;51.694;6.256;2023-03-26T07:19:03;15.10;;;2.97;;
3922;SDS011;1976;51.694;6.256;2023-03-26T07:21:29;13.77;;;3.80;;
3922;SDS011;1976;51.694;6.256;2023-03-26T07:23:55;11.30;;;3.10;;
3922;SDS011;1976;51.694;6.256;2023-03-26T07:29:06;16.13;;;3.83;;
3922;SDS011;1976;51.694;6.256;2023-03-26T07:34:44;14.33;;;2.90;;
3922;SDS011;1976;51.694;6.256;2023-03-26T07:37:09;12.20;;;2.80;;
3922;SDS011;1976;51.694;6.256;2023-03-26T07:45:29;18.87;;;3.50;;
3922;SDS011;1976;51.694;6.256;2023-03-26T07:47:58;20.63;;;3.60;;
3922;SDS011;1976;51.694;6.256;2023-03-26T07:50:24;10.73;;;3.13;;
3922;SDS011;1976;51.694;6.256;2023-03-26T07:52:51;10.30;;;2.80;;
3922;SDS011;1976;51.694;6.256;2023-03-26T07:55:17;17.17;;;2.40;;
3922;SDS011;1976;51.694;6.256;2023-03-26T07:57:59;10.70;;;2.77;;
3922;SDS011;1976;51.694;6.256;2023-03-26T08:01:01;19.50;;;4.03;;
3922;SDS011;1976;51.694;6.256;2023-03-26T08:03:49;21.23;;;3.13;;
3922;SDS011;1976;51.694;6.256;2023-03-26T08:06:38;15.83;;;3.50;;
3922;SDS011;1976;51.694;6.256;2023-03-26T08:09:13;23.60;;;3.90;;
3922;SDS011;1976;51.694;6.256;2023-03-26T08:11:53;16.40;;;3.20;;
3922;SDS011;1976;51.694;6.256;2023-03-26T08:17:29;8.00;;;2.70;;
3922;SDS011;1976;51.694;6.256;2023-03-26T08:20:13;18.97;;;3.00;;
3922;SDS011;1976;51.694;6.256;2023-03-26T08:22:45;16.93;;;3.50;;
3922;SDS011;1976;51.694;6.256;2023-03-26T08:30:35;12.23;;;2.93;;
3922;SDS011;1976;51.694;6.256;2023-03-26T08:33:03;18.10;;;3.13;;
3922;SDS011;1976;51.694;6.256;2023-03-26T08:35:36;9.63;;;2.63;;
3922;SDS011;1976;51.694;6.256;2023-03-26T08:38:06;12.83;;;2.67;;
3922;SDS011;1976;51.694;6.256;2023-03-26T08:54:45;11.90;;;2.30;;
3922;SDS011;1976;51.694;6.256;2023-03-26T08:57:33;11.20;;;3.70;;
3922;SDS011;1976;51.694;6.256;2023-03-26T09:00:07;12.50;;;3.03;;
3922;SDS011;1976;51.694;6.256;2023-03-26T09:05:38;18.23;;;4.53;;
3922;SDS011;1976;51.694;6.256;2023-03-26T09:16:59;19.03;;;5.13;;
3922;SDS011;1976;51.694;6.256;2023-03-26T09:19:35;9.00;;;3.50;;
3922;SDS011;1976;51.694;6.256;2023-03-26T09:39:41;14.80;;;5.40;;
3922;SDS011;1976;51.694;6.256;2023-03-26T09:47:46;22.57;;;5.23;;
3922;SDS011;1976;51.694;6.256;2023-03-26T09:53:25;10.17;;;5.93;;
3922;SDS011;1976;51.694;6.256;2023-03-26T10:13:02;6.90;;;5.67;;
3922;SDS011;1976;51.694;6.256;2023-03-26T10:21:18;10.27;;;6.20;;
3922;SDS011;1976;51.694;6.256;2023-03-26T10:26:52;15.37;;;7.57;;
3922;SDS011;1976;51.694;6.256;2023-03-26T10:32:29;13.10;;;5.97;;
3922;SDS011;1976;51.694;6.256;2023-03-26T10:40:49;8.70;;;4.10;;
3922;SDS011;1976;51.694;6.256;2023-03-26T10:52:11;9.53;;;3.97;;
3922;SDS011;1976;51.694;6.256;2023-03-26T10:57:39;2.30;;;2.10;;
3922;SDS011;1976;51.694;6.256;2023-03-26T11:00:15;0.70;;;0.70;;
3922;SDS011;1976;51.694;6.256;2023-03-26T11:03:01;0.60;;;0.60;;
3922;SDS011;1976;51.694;6.256;2023-03-26T11:08:11;0.60;;;0.60;;
3922;SDS011;1976;51.694;6.256;2023-03-26T11:10:48;0.60;;;0.60;;
3922;SDS011;1976;51.694;6.256;2023-03-26T11:16:08;0.60;;;0.60;;
3922;SDS011;1976;51.694;6.256;2023-03-26T11:18:50;0.60;;;0.60;;
3922;SDS011;1976;51.694;6.256;2023-03-26T11:24:48;2.20;;;1.90;;
3922;SDS011;1976;51.694;6.256;2023-03-26T11:33:06;0.60;;;0.60;;
3922;SDS011;1976;51.694;6.256;2023-03-26T11:35:36;8.00;;;2.33;;
3922;SDS011;1976;51.694;6.256;2023-03-26T11:38:10;0.70;;;0.70;;
3922;SDS011;1976;51.694;6.256;2023-03-26T11:41:01;0.60;;;0.60;;
3922;SDS011;1976;51.694;6.256;2023-03-26T11:43:32;0.60;;;0.60;;
3922;SDS011;1976;51.694;6.256;2023-03-26T11:46:01;0.60;;;0.60;;
3922;SDS011;1976;51.694;6.256;2023-03-26T11:48:37;0.80;;;0.80;;
3922;SDS011;1976;51.694;6.256;2023-03-26T11:51:08;0.60;;;0.60;;
3922;SDS011;1976;51.694;6.256;2023-03-26T11:53:41;1.30;;;1.20;;
3922;SDS011;1976;51.694;6.256;2023-03-26T12:01:43;0.60;;;0.60;;
3922;SDS011;1976;51.694;6.256;2023-03-26T12:04:16;0.60;;;0.60;;
3922;SDS011;1976;51.694;6.256;2023-03-26T12:07:28;0.60;;;0.60;;
3922;SDS011;1976;51.694;6.256;2023-03-26T12:09:53;0.60;;;0.60;;
3922;SDS011;1976;51.694;6.256;2023-03-26T12:12:23;0.60;;;0.60;;
3922;SDS011;1976;51.694;6.256;2023-03-26T12:15:03;0.60;;;0.60;;
3922;SDS011;1976;51.694;6.256;2023-03-26T12:17:37;1.33;;;1.23;;
3922;SDS011;1976;51.694;6.256;2023-03-26T12:22:54;0.60;;;0.60;;
3922;SDS011;1976;51.694;6.256;2023-03-26T12:25:24;0.60;;;0.60;;
3922;SDS011;1976;51.694;6.256;2023-03-26T12:30:30;0.60;;;0.60;;
3922;SDS011;1976;51.694;6.256;2023-03-26T12:33:05;0.60;;;0.60;;
3922;SDS011;1976;51.694;6.256;2023-03-26T12:35:39;0.57;;;0.57;;
3922;SDS011;1976;51.694;6.256;2023-03-26T12:38:15;0.60;;;0.60;;
3922;SDS011;1976;51.694;6.256;2023-03-26T12:40:47;0.60;;;0.60;;
3922;SDS011;1976;51.694;6.256;2023-03-26T12:46:27;0.60;;;0.60;;
3922;SDS011;1976;51.694;6.256;2023-03-26T12:49:00;0.60;;;0.60;;
3922;SDS011;1976;51.694;6.256;2023-03-26T12:59:47;0.60;;;0.60;;
3922;SDS011;1976;51.694;6.256;2023-03-26T13:11:28;0.50;;;0.50;;
3922;SDS011;1976;51.694;6.256;2023-03-26T13:16:39;0.60;;;0.60;;
3922;SDS011;1976;51.694;6.256;2023-03-26T13:22:08;0.50;;;0.50;;
3922;SDS011;1976;51.694;6.256;2023-03-26T13:24:57;0.60;;;0.60;;
3922;SDS011;1976;51.694;6.256;2023-03-26T13:30:01;0.60;;;0.60;;
3922;SDS011;1976;51.694;6.256;2023-03-26T13:44:07;0.60;;;0.60;;
3922;SDS011;1976;51.694;6.256;2023-03-26T13:46:38;0.60;;;0.60;;
3922;SDS011;1976;51.694;6.256;2023-03-26T13:49:09;0.60;;;0.60;;
3922;SDS011;1976;51.694;6.256;2023-03-26T13:56:49;0.60;;;0.60;;
3922;SDS011;1976;51.694;6.256;2023-03-26T13:59:25;0.60;;;0.60;;
3922;SDS011;1976;51.694;6.256;2023-03-26T14:02:04;0.60;;;0.60;;
3922;SDS011;1976;51.694;6.256;2023-03-26T14:04:39;0.90;;;0.90;;
3922;SDS011;1976;51.694;6.256;2023-03-26T14:07:30;0.60;;;0.60;;
3922;SDS011;1976;51.694;6.256;2023-03-26T14:10:09;0.60;;;0.60;;
3922;SDS011;1976;51.694;6.256;2023-03-26T14:15:29;0.60;;;0.60;;
3922;SDS011;1976;51.694;6.256;2023-03-26T14:18:05;0.60;;;0.60;;
3922;SDS011;1976;51.694;6.256;2023-03-26T14:37:40;0.60;;;0.60;;
3922;SDS011;1976;51.694;6.256;2023-03-26T14:40:46;0.60;;;0.60;;
3922;SDS011;1976;51.694;6.256;2023-03-26T14:53:45;0.60;;;0.60;;
3922;SDS011;1976;51.694;6.256;2023-03-26T15:12:49;0.60;;;0.60;;
3922;SDS011;1976;51.694;6.256;2023-03-26T15:29:37;0.60;;;0.60;;
3922;SDS011;1976;51.694;6.256;2023-03-26T15:38:07;0.60;;;0.60;;
3922;SDS011;1976;51.694;6.256;2023-03-26T15:43:21;0.60;;;0.60;;
3922;SDS011;1976;51.694;6.256;2023-03-26T15:45:52;0.60;;;0.60;;
3922;SDS011;1976;51.694;6.256;2023-03-26T15:48:44;0.60;;;0.60;;
3922;SDS011;1976;51.694;6.256;2023-03-26T15:51:26;5.50;;;3.53;;
3922;SDS011;1976;51.694;6.256;2023-03-26T15:56:33;0.70;;;0.70;;
3922;SDS011;1976;51.694;6.256;2023-03-26T16:05:23;0.60;;;0.60;;
3922;SDS011;1976;51.694;6.256;2023-03-26T16:10:29;0.60;;;0.60;;
3922;SDS011;1976;51.694;6.256;2023-03-26T16:15:49;0.70;;;0.70;;
3922;SDS011;1976;51.694;6.256;2023-03-26T16:18:33;0.60;;;0.60;;
3922;SDS011;1976;51.694;6.256;2023-03-26T16:21:24;0.60;;;0.60;;
3922;SDS011;1976;51.694;6.256;2023-03-26T16:29:19;10.73;;;2.97;;
3922;SDS011;1976;51.694;6.256;2023-03-26T16:34:26;18.83;;;2.40;;
3922;SDS011;1976;51.694;6.256;2023-03-26T16:37:03;15.37;;;2.60;;
3922;SDS011;1976;51.694;6.256;2023-03-26T16:39:50;16.00;;;2.80;;
3922;SDS011;1976;51.694;6.256;2023-03-26T16:45:02;13.87;;;2.83;;
3922;SDS011;1976;51.694;6.256;2023-03-26T16:50:24;23.27;;;3.33;;
3922;SDS011;1976;51.694;6.256;2023-03-26T16:58:29;5.63;;;3.17;;
3922;SDS011;1976;51.694;6.256;2023-03-26T17:01:10;12.43;;;2.23;;
3922;SDS011;1976;51.694;6.256;2023-03-26T17:06:53;14.13;;;2.67;;
3922;SDS011;1976;51.694;6.256;2023-03-26T17:09:36;10.60;;;3.07;;
3922;SDS011;1976;51.694;6.256;2023-03-26T17:26:19;17.53;;;3.27;;
3922;SDS011;1976;51.694;6.256;2023-03-26T17:31:50;13.53;;;2.90;;
3922;SDS011;1976;51.694;6.256;2023-03-26T17:37:10;10.30;;;2.37;;
3922;SDS011;1976;51.694;6.256;2023-03-26T17:42:31;10.27;;;3.33;;
3922;SDS011;1976;51.694;6.256;2023-03-26T17:47:50;8.87;;;3.27;;
3922;SDS011;1976;51.694;6.256;2023-03-26T17:53:18;27.63;;;3.93;;
3922;SDS011;1976;51.694;6.256;2023-03-26T17:55:44;17.60;;;3.87;;
3922;SDS011;1976;51.694;6.256;2023-03-26T18:00:56;13.10;;;2.50;;
3922;SDS011;1976;51.694;6.256;2023-03-26T18:03:29;14.33;;;3.77;;
3922;SDS011;1976;51.694;6.256;2023-03-26T18:06:13;12.67;;;3.37;;
3922;SDS011;1976;51.694;6.256;2023-03-26T18:17:09;5.83;;;1.90;;
3922;SDS011;1976;51.694;6.256;2023-03-26T18:19:49;26.43;;;2.63;;
3922;SDS011;1976;51.694;6.256;2023-03-26T18:22:24;12.37;;;2.47;;
3922;SDS011;1976;51.694;6.256;2023-03-26T18:24:53;7.63;;;2.20;;
3922;SDS011;1976;51.694;6.256;2023-03-26T18:27:24;21.00;;;3.60;;
3922;SDS011;1976;51.694;6.256;2023-03-26T18:32:23;6.50;;;1.93;;
3922;SDS011;1976;51.694;6.256;2023-03-26T18:34:58;10.90;;;2.63;;
3922;SDS011;1976;51.694;6.256;2023-03-26T18:37:45;25.07;;;2.47;;
3922;SDS011;1976;51.694;6.256;2023-03-26T18:40:17;9.67;;;2.27;;
3922;SDS011;1976;51.694;6.256;2023-03-26T18:47:44;6.80;;;2.03;;
3922;SDS011;1976;51.694;6.256;2023-03-26T18:50:15;5.70;;;1.93;;
3922;SDS011;1976;51.694;6.256;2023-03-26T18:52:45;10.73;;;1.97;;
3922;SDS011;1976;51.694;6.256;2023-03-26T18:55:12;7.70;;;2.27;;
3922;SDS011;1976;51.694;6.256;2023-03-26T18:57:38;10.43;;;2.27;;
3922;SDS011;1976;51.694;6.256;2023-03-26T19:00:25;9.53;;;2.40;;
3922;SDS011;1976;51.694;6.256;2023-03-26T19:03:02;15.90;;;1.93;;
3922;SDS011;1976;51.694;6.256;2023-03-26T19:05:30;8.07;;;2.33;;
3922;SDS011;1976;51.694;6.256;2023-03-26T19:07:59;9.13;;;2.30;;
3922;SDS011;1976;51.694;6.256;2023-03-26T19:10:27;18.10;;;2.40;;
3922;SDS011;1976;51.694;6.256;2023-03-26T19:12:56;7.10;;;1.80;;
3922;SDS011;1976;51.694;6.256;2023-03-26T19:15:23;3.63;;;1.73;;
3922;SDS011;1976;51.694;6.256;2023-03-26T19:17:52;8.97;;;1.60;;
3922;SDS011;1976;51.694;6.256;2023-03-26T19:20:24;11.13;;;1.67;;
3922;SDS011;1976;51.694;6.256;2023-03-26T19:22:52;4.97;;;1.50;;
3922;SDS011;1976;51.694;6.256;2023-03-26T19:27:51;9.10;;;2.30;;
3922;SDS011;1976;51.694;6.256;2023-03-26T19:30:17;7.30;;;1.97;;
3922;SDS011;1976;51.694;6.256;2023-03-26T19:33:03;11.00;;;2.33;;
3922;SDS011;1976;51.694;6.256;2023-03-26T19:35:44;26.47;;;2.13;;
3922;SDS011;1976;51.694;6.256;2023-03-26T19:38:22;12.00;;;2.53;;
3922;SDS011;1976;51.694;6.256;2023-03-26T19:40:50;7.70;;;2.00;;
3922;SDS011;1976;51.694;6.256;2023-03-26T19:43:18;7.40;;;1.70;;
3922;SDS011;1976;51.694;6.256;2023-03-26T19:45:44;14.20;;;2.53;;
3922;SDS011;1976;51.694;6.256;2023-03-26T19:48:13;6.70;;;2.13;;
3922;SDS011;1976;51.694;6.256;2023-03-26T19:50:42;9.70;;;2.43;;
3922;SDS011;1976;51.694;6.256;2023-03-26T19:53:34;6.63;;;1.87;;
3922;SDS011;1976;51.694;6.256;2023-03-26T19:58:37;2.10;;;1.50;;
3922;SDS011;1976;51.694;6.256;2023-03-26T20:01:04;16.33;;;2.20;;
3922;SDS011;1976;51.694;6.256;2023-03-26T20:03:38;8.93;;;2.13;;
3922;SDS011;1976;51.694;6.256;2023-03-26T20:06:17;10.50;;;2.07;;
3922;SDS011;1976;51.694;6.256;2023-03-26T20:08:44;5.30;;;1.70;;
3922;SDS011;1976;51.694;6.256;2023-03-26T20:11:15;8.17;;;2.50;;
3922;SDS011;1976;51.694;6.256;2023-03-26T20:13:47;6.67;;;1.70;;
3922;SDS011;1976;51.694;6.256;2023-03-26T20:16:22;4.00;;;2.60;;
3922;SDS011;1976;51.694;6.256;2023-03-26T20:18:50;11.73;;;2.00;;
3922;SDS011;1976;51.694;6.256;2023-03-26T20:21:16;13.17;;;2.33;;
3922;SDS011;1976;51.694;6.256;2023-03-26T20:23:42;8.10;;;2.07;;
3922;SDS011;1976;51.694;6.256;2023-03-26T20:26:12;5.40;;;2.07;;
3922;SDS011;1976;51.694;6.256;2023-03-26T20:28:39;7.10;;;1.60;;
3922;SDS011;1976;51.694;6.256;2023-03-26T20:31:10;19.27;;;2.80;;
3922;SDS011;1976;51.694;6.256;2023-03-26T20:33:38;5.40;;;1.83;;
3922;SDS011;1976;51.694;6.256;2023-03-26T20:36:04;11.80;;;2.30;;
3922;SDS011;1976;51.694;6.256;2023-03-26T20:38:30;6.60;;;1.90;;
3922;SDS011;1976;51.694;6.256;2023-03-26T20:40:55;8.50;;;1.80;;
3922;SDS011;1976;51.694;6.256;2023-03-26T20:43:22;8.33;;;1.97;;
3922;SDS011;1976;51.694;6.256;2023-03-26T20:45:49;10.00;;;2.00;;
3922;SDS011;1976;51.694;6.256;2023-03-26T20:48:16;12.80;;;2.60;;
3922;SDS011;1976;51.694;6.256;2023-03-26T20:50:41;18.20;;;2.90;;
3922;SDS011;1976;51.694;6.256;2023-03-26T20:53:12;8.23;;;1.73;;
3922;SDS011;1976;51.694;6.256;2023-03-26T20:55:43;10.90;;;2.37;;
3922;SDS011;1976;51.694;6.256;2023-03-26T20:58:13;12.50;;;1.90;;
3922;SDS011;1976;51.694;6.256;2023-03-26T21:00:41;8.30;;;1.80;;
3922;SDS011;1976;51.694;6.256;2023-03-26T21:03:11;20.17;;;2.73;;
3922;SDS011;1976;51.694;6.256;2023-03-26T21:05:38;5.20;;;1.90;;
3922;SDS011;1976;51.694;6.256;2023-03-26T21:08:05;17.67;;;1.40;;
3922;SDS011;1976;51.694;6.256;2023-03-26T21:10:31;16.57;;;2.20;;
3922;SDS011;1976;51.694;6.256;2023-03-26T21:13:07;9.03;;;2.70;;
3922;SDS011;1976;51.694;6.256;2023-03-26T21:15:35;8.40;;;2.47;;
3922;SDS011;1976;51.694;6.256;2023-03-26T21:18:01;16.33;;;2.60;;
3922;SDS011;1976;51.694;6.256;2023-03-26T21:20:27;16.03;;;1.70;;
3922;SDS011;1976;51.694;6.256;2023-03-26T21:25:28;6.70;;;1.83;;
3922;SDS011;1976;51.694;6.256;2023-03-26T21:28:36;11.27;;;1.67;;
3922;SDS011;1976;51.694;6.256;2023-03-26T21:30:57;12.70;;;2.77;;
3922;SDS011;1976;51.694;6.256;2023-03-26T21:33:23;15.27;;;2.03;;
3922;SDS011;1976;51.694;6.256;2023-03-26T21:35:51;8.60;;;1.70;;